sensor_id;sensor_type;location;lat;lon;timestamp;P1;durP1;ratioP1;P2;durP2;ratioP2
16975;SDS011;8604;48.148;-1.786;2023-04-26T00:00:00;7.53;;;4.17;;
16975;SDS011;8604;48.148;-1.786;2023-04-26T00:02:34;6.70;;;3.90;;
16975;SDS011;8604;48.148;-1.786;2023-04-26T00:05:03;7.37;;;4.23;;
16975;SDS011;8604;48.148;-1.786;2023-04-26T00:07:35;7.67;;;4.17;;
16975;SDS011;8604;48.148;-1.786;2023-04-26T00:10:07;7.93;;;4.07;;
16975;SDS011;8604;48.148;-1.786;2023-04-26T00:12:36;6.77;;;4.20;;
16975;SDS011;8604;48.148;-1.786;2023-04-26T00:15:07;7.13;;;4.33;;
16975;SDS011;8604;48.148;-1.786;2023-04-26T00:17:35;6.20;;;3.70;;
16975;SDS011;8604;48.148;-1.786;2023-04-26T00:20:04;7.47;;;4.23;;
16975;SDS011;8604;48.148;-1.786;2023-04-26T00:22:36;7.10;;;3.97;;
16975;SDS011;8604;48.148;-1.786;2023-04-26T00:25:06;6.20;;;4.17;;
16975;SDS011;8604;48.148;-1.786;2023-04-26T00:27:35;6.33;;;4.13;;
16975;SDS011;8604;48.148;-1.786;2023-04-26T00:30:06;8.00;;;4.00;;
16975;SDS011;8604;48.148;-1.786;2023-04-26T00:32:36;7.30;;;4.17;;
16975;SDS011;8604;48.148;-1.786;2023-04-26T00:35:06;6.83;;;4.07;;
16975;SDS011;8604;48.148;-1.786;2023-04-26T00:37:37;7.53;;;4.50;;
16975;SDS011;8604;48.148;-1.786;2023-04-26T00:40:07;7.10;;;4.03;;
16975;SDS011;8604;48.148;-1.786;2023-04-26T00:42:36;6.70;;;4.57;;
16975;SDS011;8604;48.148;-1.786;2023-04-26T00:45:06;9.63;;;4.50;;
16975;SDS011;8604;48.148;-1.786;2023-04-26T00:47:35;8.13;;;4.20;;
16975;SDS011;8604;48.148;-1.786;2023-04-26T00:50:04;7.17;;;4.07;;
16975;SDS011;8604;48.148;-1.786;2023-04-26T00:52:36;7.27;;;4.20;;
16975;SDS011;8604;48.148;-1.786;2023-04-26T00:55:07;7.60;;;4.37;;
16975;SDS011;8604;48.148;-1.786;2023-04-26T00:57:36;6.63;;;4.20;;
16975;SDS011;8604;48.148;-1.786;2023-04-26T01:00:05;6.10;;;4.03;;
16975;SDS011;8604;48.148;-1.786;2023-04-26T01:02:35;7.53;;;4.30;;
16975;SDS011;8604;48.148;-1.786;2023-04-26T01:05:05;6.40;;;4.30;;
16975;SDS011;8604;48.148;-1.786;2023-04-26T01:07:35;7.10;;;3.70;;
16975;SDS011;8604;48.148;-1.786;2023-04-26T01:10:05;6.47;;;4.27;;
16975;SDS011;8604;48.148;-1.786;2023-04-26T01:12:36;8.70;;;4.23;;
16975;SDS011;8604;48.148;-1.786;2023-04-26T01:15:05;7.97;;;4.60;;
16975;SDS011;8604;48.148;-1.786;2023-04-26T01:17:35;7.87;;;4.17;;
16975;SDS011;8604;48.148;-1.786;2023-04-26T01:20:04;7.87;;;4.50;;
16975;SDS011;8604;48.148;-1.786;2023-04-26T01:22:39;6.53;;;4.50;;
16975;SDS011;8604;48.148;-1.786;2023-04-26T01:25:08;8.90;;;4.50;;
16975;SDS011;8604;48.148;-1.786;2023-04-26T01:27:38;7.27;;;4.10;;
16975;SDS011;8604;48.148;-1.786;2023-04-26T01:30:07;8.43;;;4.50;;
16975;SDS011;8604;48.148;-1.786;2023-04-26T01:32:37;8.50;;;4.27;;
16975;SDS011;8604;48.148;-1.786;2023-04-26T01:35:05;8.10;;;4.43;;
16975;SDS011;8604;48.148;-1.786;2023-04-26T01:37:34;6.77;;;4.10;;
16975;SDS011;8604;48.148;-1.786;2023-04-26T01:40:05;7.40;;;4.50;;
16975;SDS011;8604;48.148;-1.786;2023-04-26T01:42:35;7.43;;;4.20;;
16975;SDS011;8604;48.148;-1.786;2023-04-26T01:45:04;7.90;;;4.20;;
16975;SDS011;8604;48.148;-1.786;2023-04-26T01:47:52;9.07;;;4.57;;
16975;SDS011;8604;48.148;-1.786;2023-04-26T01:50:25;8.60;;;4.27;;
16975;SDS011;8604;48.148;-1.786;2023-04-26T01:52:53;8.50;;;4.83;;
16975;SDS011;8604;48.148;-1.786;2023-04-26T01:55:23;6.97;;;4.27;;
16975;SDS011;8604;48.148;-1.786;2023-04-26T01:57:51;7.80;;;4.43;;
16975;SDS011;8604;48.148;-1.786;2023-04-26T02:00:19;8.77;;;4.87;;
16975;SDS011;8604;48.148;-1.786;2023-04-26T02:02:48;8.30;;;4.40;;
16975;SDS011;8604;48.148;-1.786;2023-04-26T02:05:16;7.10;;;4.70;;
16975;SDS011;8604;48.148;-1.786;2023-04-26T02:07:45;8.23;;;4.67;;
16975;SDS011;8604;48.148;-1.786;2023-04-26T02:10:13;7.00;;;4.20;;
16975;SDS011;8604;48.148;-1.786;2023-04-26T02:12:44;6.60;;;4.47;;
16975;SDS011;8604;48.148;-1.786;2023-04-26T02:15:13;6.93;;;4.50;;
16975;SDS011;8604;48.148;-1.786;2023-04-26T02:17:44;8.27;;;4.67;;
16975;SDS011;8604;48.148;-1.786;2023-04-26T02:20:12;7.50;;;4.40;;
16975;SDS011;8604;48.148;-1.786;2023-04-26T02:22:41;7.63;;;5.00;;
16975;SDS011;8604;48.148;-1.786;2023-04-26T02:25:09;9.77;;;4.80;;
16975;SDS011;8604;48.148;-1.786;2023-04-26T02:27:38;8.60;;;4.40;;
16975;SDS011;8604;48.148;-1.786;2023-04-26T02:30:11;8.53;;;4.50;;
16975;SDS011;8604;48.148;-1.786;2023-04-26T02:32:42;7.77;;;4.73;;
16975;SDS011;8604;48.148;-1.786;2023-04-26T02:35:10;8.17;;;4.50;;
16975;SDS011;8604;48.148;-1.786;2023-04-26T02:37:40;7.57;;;4.50;;
16975;SDS011;8604;48.148;-1.786;2023-04-26T02:40:14;8.17;;;4.87;;
16975;SDS011;8604;48.148;-1.786;2023-04-26T02:42:42;8.17;;;4.80;;
16975;SDS011;8604;48.148;-1.786;2023-04-26T02:45:13;7.57;;;4.50;;
16975;SDS011;8604;48.148;-1.786;2023-04-26T02:47:41;7.87;;;4.97;;
16975;SDS011;8604;48.148;-1.786;2023-04-26T02:50:10;9.37;;;5.00;;
16975;SDS011;8604;48.148;-1.786;2023-04-26T02:52:41;9.20;;;5.27;;
16975;SDS011;8604;48.148;-1.786;2023-04-26T02:55:10;9.17;;;4.73;;
16975;SDS011;8604;48.148;-1.786;2023-04-26T02:57:39;8.77;;;5.23;;
16975;SDS011;8604;48.148;-1.786;2023-04-26T03:00:08;9.53;;;4.90;;
16975;SDS011;8604;48.148;-1.786;2023-04-26T03:02:41;7.73;;;4.43;;
16975;SDS011;8604;48.148;-1.786;2023-04-26T03:05:10;6.83;;;4.67;;
16975;SDS011;8604;48.148;-1.786;2023-04-26T03:07:39;8.13;;;4.83;;
16975;SDS011;8604;48.148;-1.786;2023-04-26T03:10:08;7.27;;;4.53;;
16975;SDS011;8604;48.148;-1.786;2023-04-26T03:12:38;7.93;;;5.00;;
16975;SDS011;8604;48.148;-1.786;2023-04-26T03:15:07;7.83;;;4.83;;
16975;SDS011;8604;48.148;-1.786;2023-04-26T03:17:38;9.53;;;5.33;;
16975;SDS011;8604;48.148;-1.786;2023-04-26T03:20:08;7.37;;;4.80;;
16975;SDS011;8604;48.148;-1.786;2023-04-26T03:22:37;8.23;;;5.07;;
16975;SDS011;8604;48.148;-1.786;2023-04-26T03:25:06;9.50;;;5.07;;
16975;SDS011;8604;48.148;-1.786;2023-04-26T03:27:35;8.50;;;5.17;;
16975;SDS011;8604;48.148;-1.786;2023-04-26T03:30:04;8.50;;;4.60;;
16975;SDS011;8604;48.148;-1.786;2023-04-26T03:32:34;8.73;;;5.03;;
16975;SDS011;8604;48.148;-1.786;2023-04-26T03:35:04;8.43;;;5.23;;
16975;SDS011;8604;48.148;-1.786;2023-04-26T03:37:34;8.93;;;5.03;;
16975;SDS011;8604;48.148;-1.786;2023-04-26T03:40:07;9.53;;;5.50;;
16975;SDS011;8604;48.148;-1.786;2023-04-26T03:42:36;11.43;;;5.87;;
16975;SDS011;8604;48.148;-1.786;2023-04-26T03:45:05;9.47;;;5.80;;
16975;SDS011;8604;48.148;-1.786;2023-04-26T03:47:34;9.37;;;5.80;;
16975;SDS011;8604;48.148;-1.786;2023-04-26T03:50:03;8.33;;;5.57;;
16975;SDS011;8604;48.148;-1.786;2023-04-26T03:52:31;8.33;;;5.33;;
16975;SDS011;8604;48.148;-1.786;2023-04-26T03:55:01;8.57;;;5.47;;
16975;SDS011;8604;48.148;-1.786;2023-04-26T03:57:30;10.37;;;5.43;;
16975;SDS011;8604;48.148;-1.786;2023-04-26T03:59:59;8.77;;;5.20;;
16975;SDS011;8604;48.148;-1.786;2023-04-26T04:02:28;10.27;;;5.53;;
16975;SDS011;8604;48.148;-1.786;2023-04-26T04:04:57;10.60;;;6.13;;
16975;SDS011;8604;48.148;-1.786;2023-04-26T04:07:26;9.17;;;5.97;;
16975;SDS011;8604;48.148;-1.786;2023-04-26T04:09:56;8.20;;;5.30;;
16975;SDS011;8604;48.148;-1.786;2023-04-26T04:12:24;11.37;;;5.70;;
16975;SDS011;8604;48.148;-1.786;2023-04-26T04:14:53;8.97;;;5.23;;
16975;SDS011;8604;48.148;-1.786;2023-04-26T04:17:24;9.40;;;5.70;;
16975;SDS011;8604;48.148;-1.786;2023-04-26T04:19:53;8.67;;;6.20;;
16975;SDS011;8604;48.148;-1.786;2023-04-26T04:22:21;11.27;;;6.07;;
16975;SDS011;8604;48.148;-1.786;2023-04-26T04:24:49;10.07;;;6.00;;
16975;SDS011;8604;48.148;-1.786;2023-04-26T04:27:20;9.77;;;6.83;;
16975;SDS011;8604;48.148;-1.786;2023-04-26T04:29:48;10.13;;;6.40;;
16975;SDS011;8604;48.148;-1.786;2023-04-26T04:32:16;11.60;;;6.33;;
16975;SDS011;8604;48.148;-1.786;2023-04-26T04:34:45;9.20;;;6.07;;
16975;SDS011;8604;48.148;-1.786;2023-04-26T04:37:15;9.73;;;6.00;;
16975;SDS011;8604;48.148;-1.786;2023-04-26T04:39:44;9.63;;;6.50;;
16975;SDS011;8604;48.148;-1.786;2023-04-26T04:42:12;9.77;;;5.87;;
16975;SDS011;8604;48.148;-1.786;2023-04-26T04:44:43;10.87;;;6.17;;
16975;SDS011;8604;48.148;-1.786;2023-04-26T04:47:11;10.00;;;6.63;;
16975;SDS011;8604;48.148;-1.786;2023-04-26T04:49:40;10.60;;;6.40;;
16975;SDS011;8604;48.148;-1.786;2023-04-26T04:52:09;10.10;;;6.17;;
16975;SDS011;8604;48.148;-1.786;2023-04-26T04:54:37;9.97;;;6.30;;
16975;SDS011;8604;48.148;-1.786;2023-04-26T04:57:06;10.60;;;6.37;;
16975;SDS011;8604;48.148;-1.786;2023-04-26T04:59:36;10.10;;;6.40;;
16975;SDS011;8604;48.148;-1.786;2023-04-26T05:02:05;10.30;;;6.70;;
16975;SDS011;8604;48.148;-1.786;2023-04-26T05:04:34;10.60;;;5.90;;
16975;SDS011;8604;48.148;-1.786;2023-04-26T05:07:02;10.63;;;6.83;;
16975;SDS011;8604;48.148;-1.786;2023-04-26T05:09:33;9.03;;;6.30;;
16975;SDS011;8604;48.148;-1.786;2023-04-26T05:12:03;9.60;;;6.50;;
16975;SDS011;8604;48.148;-1.786;2023-04-26T05:14:32;9.37;;;6.33;;
16975;SDS011;8604;48.148;-1.786;2023-04-26T05:17:00;10.63;;;6.40;;
16975;SDS011;8604;48.148;-1.786;2023-04-26T05:19:30;9.50;;;6.40;;
16975;SDS011;8604;48.148;-1.786;2023-04-26T05:21:59;11.27;;;6.37;;
16975;SDS011;8604;48.148;-1.786;2023-04-26T05:24:28;9.83;;;6.60;;
16975;SDS011;8604;48.148;-1.786;2023-04-26T05:26:57;10.40;;;6.97;;
16975;SDS011;8604;48.148;-1.786;2023-04-26T05:29:46;12.33;;;6.50;;
16975;SDS011;8604;48.148;-1.786;2023-04-26T05:32:36;9.47;;;6.00;;
16975;SDS011;8604;48.148;-1.786;2023-04-26T05:35:27;11.10;;;7.10;;
16975;SDS011;8604;48.148;-1.786;2023-04-26T05:37:56;11.67;;;6.80;;
16975;SDS011;8604;48.148;-1.786;2023-04-26T05:40:24;12.43;;;7.03;;
16975;SDS011;8604;48.148;-1.786;2023-04-26T05:42:53;14.37;;;6.77;;
16975;SDS011;8604;48.148;-1.786;2023-04-26T05:45:22;10.87;;;6.70;;
16975;SDS011;8604;48.148;-1.786;2023-04-26T05:51:41;13.13;;;7.17;;
16975;SDS011;8604;48.148;-1.786;2023-04-26T05:54:19;10.97;;;7.40;;
16975;SDS011;8604;48.148;-1.786;2023-04-26T05:56:55;10.93;;;7.50;;
16975;SDS011;8604;48.148;-1.786;2023-04-26T05:59:57;14.77;;;7.63;;
16975;SDS011;8604;48.148;-1.786;2023-04-26T06:02:56;10.90;;;7.10;;
16975;SDS011;8604;48.148;-1.786;2023-04-26T06:05:44;11.80;;;7.67;;
16975;SDS011;8604;48.148;-1.786;2023-04-26T06:12:39;13.77;;;7.70;;
16975;SDS011;8604;48.148;-1.786;2023-04-26T06:15:36;10.63;;;7.17;;
16975;SDS011;8604;48.148;-1.786;2023-04-26T06:18:26;12.67;;;7.57;;
16975;SDS011;8604;48.148;-1.786;2023-04-26T06:21:24;12.70;;;7.33;;
16975;SDS011;8604;48.148;-1.786;2023-04-26T06:24:14;11.90;;;8.27;;
16975;SDS011;8604;48.148;-1.786;2023-04-26T06:27:11;12.90;;;7.90;;
16975;SDS011;8604;48.148;-1.786;2023-04-26T06:30:08;14.77;;;8.50;;
16975;SDS011;8604;48.148;-1.786;2023-04-26T06:33:19;12.90;;;8.40;;
16975;SDS011;8604;48.148;-1.786;2023-04-26T06:36:12;12.97;;;7.47;;
16975;SDS011;8604;48.148;-1.786;2023-04-26T06:39:22;13.63;;;8.30;;
16975;SDS011;8604;48.148;-1.786;2023-04-26T06:41:54;13.87;;;8.47;;
16975;SDS011;8604;48.148;-1.786;2023-04-26T06:45:02;13.57;;;8.07;;
16975;SDS011;8604;48.148;-1.786;2023-04-26T06:47:51;12.53;;;7.77;;
16975;SDS011;8604;48.148;-1.786;2023-04-26T06:50:23;11.67;;;7.40;;
16975;SDS011;8604;48.148;-1.786;2023-04-26T06:55:56;12.47;;;7.50;;
16975;SDS011;8604;48.148;-1.786;2023-04-26T06:58:24;12.50;;;8.03;;
16975;SDS011;8604;48.148;-1.786;2023-04-26T07:00:52;15.43;;;8.10;;
16975;SDS011;8604;48.148;-1.786;2023-04-26T07:07:28;12.97;;;8.13;;
16975;SDS011;8604;48.148;-1.786;2023-04-26T07:09:57;12.80;;;8.33;;
16975;SDS011;8604;48.148;-1.786;2023-04-26T07:12:25;13.50;;;8.07;;
16975;SDS011;8604;48.148;-1.786;2023-04-26T07:14:54;11.43;;;8.23;;
16975;SDS011;8604;48.148;-1.786;2023-04-26T07:17:22;13.90;;;7.93;;
16975;SDS011;8604;48.148;-1.786;2023-04-26T07:19:50;13.03;;;8.83;;
16975;SDS011;8604;48.148;-1.786;2023-04-26T07:22:21;12.53;;;8.27;;
16975;SDS011;8604;48.148;-1.786;2023-04-26T07:24:51;14.13;;;8.60;;
16975;SDS011;8604;48.148;-1.786;2023-04-26T07:27:19;13.70;;;8.83;;
16975;SDS011;8604;48.148;-1.786;2023-04-26T07:29:48;11.90;;;8.33;;
16975;SDS011;8604;48.148;-1.786;2023-04-26T07:32:21;13.93;;;8.40;;
16975;SDS011;8604;48.148;-1.786;2023-04-26T07:34:50;13.70;;;8.10;;
16975;SDS011;8604;48.148;-1.786;2023-04-26T07:37:18;12.57;;;8.23;;
16975;SDS011;8604;48.148;-1.786;2023-04-26T07:39:46;13.27;;;8.13;;
16975;SDS011;8604;48.148;-1.786;2023-04-26T07:42:16;11.67;;;8.10;;
16975;SDS011;8604;48.148;-1.786;2023-04-26T07:44:46;11.00;;;7.23;;
16975;SDS011;8604;48.148;-1.786;2023-04-26T07:47:14;11.07;;;7.73;;
16975;SDS011;8604;48.148;-1.786;2023-04-26T07:49:43;12.10;;;7.80;;
16975;SDS011;8604;48.148;-1.786;2023-04-26T07:52:16;11.30;;;7.67;;
16975;SDS011;8604;48.148;-1.786;2023-04-26T07:54:45;12.30;;;7.83;;
16975;SDS011;8604;48.148;-1.786;2023-04-26T07:57:13;12.90;;;7.93;;
16975;SDS011;8604;48.148;-1.786;2023-04-26T07:59:43;12.23;;;8.20;;
16975;SDS011;8604;48.148;-1.786;2023-04-26T08:02:12;11.37;;;7.70;;
16975;SDS011;8604;48.148;-1.786;2023-04-26T08:04:47;14.10;;;8.43;;
16975;SDS011;8604;48.148;-1.786;2023-04-26T08:07:18;16.43;;;8.10;;
16975;SDS011;8604;48.148;-1.786;2023-04-26T08:09:46;10.87;;;7.80;;
16975;SDS011;8604;48.148;-1.786;2023-04-26T08:12:15;12.40;;;7.87;;
16975;SDS011;8604;48.148;-1.786;2023-04-26T08:14:45;14.37;;;8.50;;
16975;SDS011;8604;48.148;-1.786;2023-04-26T08:17:13;12.47;;;8.47;;
16975;SDS011;8604;48.148;-1.786;2023-04-26T08:19:42;11.87;;;8.00;;
16975;SDS011;8604;48.148;-1.786;2023-04-26T08:22:10;11.87;;;8.33;;
16975;SDS011;8604;48.148;-1.786;2023-04-26T08:24:38;11.33;;;8.23;;
16975;SDS011;8604;48.148;-1.786;2023-04-26T08:27:07;13.10;;;8.20;;
16975;SDS011;8604;48.148;-1.786;2023-04-26T08:32:56;14.33;;;8.70;;
16975;SDS011;8604;48.148;-1.786;2023-04-26T08:35:24;11.17;;;8.63;;
16975;SDS011;8604;48.148;-1.786;2023-04-26T08:37:53;15.20;;;8.90;;
16975;SDS011;8604;48.148;-1.786;2023-04-26T08:40:22;15.57;;;8.73;;
16975;SDS011;8604;48.148;-1.786;2023-04-26T08:42:51;14.73;;;8.53;;
16975;SDS011;8604;48.148;-1.786;2023-04-26T08:45:20;20.83;;;9.47;;
16975;SDS011;8604;48.148;-1.786;2023-04-26T08:47:49;14.27;;;8.80;;
16975;SDS011;8604;48.148;-1.786;2023-04-26T08:50:21;13.17;;;8.57;;
16975;SDS011;8604;48.148;-1.786;2023-04-26T08:52:50;14.37;;;8.17;;
16975;SDS011;8604;48.148;-1.786;2023-04-26T08:58:39;10.03;;;7.70;;
16975;SDS011;8604;48.148;-1.786;2023-04-26T09:01:08;12.60;;;7.83;;
16975;SDS011;8604;48.148;-1.786;2023-04-26T09:03:41;14.30;;;8.70;;
16975;SDS011;8604;48.148;-1.786;2023-04-26T09:06:12;12.87;;;7.67;;
16975;SDS011;8604;48.148;-1.786;2023-04-26T09:08:41;11.23;;;7.73;;
16975;SDS011;8604;48.148;-1.786;2023-04-26T09:11:10;13.27;;;8.57;;
16975;SDS011;8604;48.148;-1.786;2023-04-26T09:13:39;12.17;;;7.67;;
16975;SDS011;8604;48.148;-1.786;2023-04-26T09:16:07;11.83;;;7.83;;
16975;SDS011;8604;48.148;-1.786;2023-04-26T09:18:46;11.53;;;7.70;;
16975;SDS011;8604;48.148;-1.786;2023-04-26T09:21:18;14.37;;;8.50;;
16975;SDS011;8604;48.148;-1.786;2023-04-26T09:23:56;13.53;;;8.70;;
16975;SDS011;8604;48.148;-1.786;2023-04-26T09:26:27;11.63;;;7.93;;
16975;SDS011;8604;48.148;-1.786;2023-04-26T09:29:11;15.07;;;9.93;;
16975;SDS011;8604;48.148;-1.786;2023-04-26T09:31:45;16.53;;;11.97;;
16975;SDS011;8604;48.148;-1.786;2023-04-26T09:34:15;19.90;;;13.50;;
16975;SDS011;8604;48.148;-1.786;2023-04-26T09:36:52;13.83;;;8.87;;
16975;SDS011;8604;48.148;-1.786;2023-04-26T09:39:29;14.07;;;8.60;;
16975;SDS011;8604;48.148;-1.786;2023-04-26T09:41:59;14.77;;;8.47;;
16975;SDS011;8604;48.148;-1.786;2023-04-26T09:44:29;15.20;;;8.50;;
16975;SDS011;8604;48.148;-1.786;2023-04-26T09:46:59;11.73;;;8.07;;
16975;SDS011;8604;48.148;-1.786;2023-04-26T09:49:30;11.57;;;7.83;;
16975;SDS011;8604;48.148;-1.786;2023-04-26T09:52:05;12.17;;;8.43;;
16975;SDS011;8604;48.148;-1.786;2023-04-26T09:54:37;12.00;;;8.87;;
16975;SDS011;8604;48.148;-1.786;2023-04-26T09:57:10;14.80;;;9.10;;
16975;SDS011;8604;48.148;-1.786;2023-04-26T09:59:43;14.30;;;9.67;;
16975;SDS011;8604;48.148;-1.786;2023-04-26T10:02:13;12.63;;;8.70;;
16975;SDS011;8604;48.148;-1.786;2023-04-26T10:04:43;13.83;;;8.60;;
16975;SDS011;8604;48.148;-1.786;2023-04-26T10:07:15;13.40;;;9.30;;
16975;SDS011;8604;48.148;-1.786;2023-04-26T10:09:45;15.77;;;9.87;;
16975;SDS011;8604;48.148;-1.786;2023-04-26T10:12:15;14.83;;;10.10;;
16975;SDS011;8604;48.148;-1.786;2023-04-26T10:14:44;15.63;;;9.23;;
16975;SDS011;8604;48.148;-1.786;2023-04-26T10:17:13;11.43;;;8.27;;
16975;SDS011;8604;48.148;-1.786;2023-04-26T10:19:43;13.37;;;8.87;;
16975;SDS011;8604;48.148;-1.786;2023-04-26T10:22:16;11.67;;;8.57;;
16975;SDS011;8604;48.148;-1.786;2023-04-26T10:24:48;11.87;;;8.73;;
16975;SDS011;8604;48.148;-1.786;2023-04-26T10:30:14;20.13;;;13.60;;
16975;SDS011;8604;48.148;-1.786;2023-04-26T10:38:33;13.07;;;8.10;;
16975;SDS011;8604;48.148;-1.786;2023-04-26T10:47:06;13.17;;;7.03;;
16975;SDS011;8604;48.148;-1.786;2023-04-26T10:49:47;10.33;;;7.67;;
16975;SDS011;8604;48.148;-1.786;2023-04-26T10:52:17;11.30;;;7.87;;
16975;SDS011;8604;48.148;-1.786;2023-04-26T10:54:53;9.80;;;7.20;;
16975;SDS011;8604;48.148;-1.786;2023-04-26T10:57:23;9.50;;;6.77;;
16975;SDS011;8604;48.148;-1.786;2023-04-26T11:00:17;9.27;;;6.90;;
16975;SDS011;8604;48.148;-1.786;2023-04-26T11:03:12;11.57;;;7.33;;
16975;SDS011;8604;48.148;-1.786;2023-04-26T11:05:47;10.43;;;7.60;;
16975;SDS011;8604;48.148;-1.786;2023-04-26T11:08:20;9.27;;;6.20;;
16975;SDS011;8604;48.148;-1.786;2023-04-26T11:10:57;8.00;;;5.77;;
16975;SDS011;8604;48.148;-1.786;2023-04-26T11:13:34;8.70;;;6.00;;
16975;SDS011;8604;48.148;-1.786;2023-04-26T11:16:05;7.53;;;5.80;;
16975;SDS011;8604;48.148;-1.786;2023-04-26T11:18:35;9.23;;;6.57;;
16975;SDS011;8604;48.148;-1.786;2023-04-26T11:21:05;9.70;;;6.80;;
16975;SDS011;8604;48.148;-1.786;2023-04-26T11:23:54;8.73;;;7.10;;
16975;SDS011;8604;48.148;-1.786;2023-04-26T11:26:24;8.30;;;6.67;;
16975;SDS011;8604;48.148;-1.786;2023-04-26T11:28:59;9.83;;;6.47;;
16975;SDS011;8604;48.148;-1.786;2023-04-26T11:31:29;8.23;;;6.30;;
16975;SDS011;8604;48.148;-1.786;2023-04-26T11:34:00;6.87;;;5.50;;
16975;SDS011;8604;48.148;-1.786;2023-04-26T11:36:30;9.03;;;6.60;;
16975;SDS011;8604;48.148;-1.786;2023-04-26T11:38:59;7.13;;;5.30;;
16975;SDS011;8604;48.148;-1.786;2023-04-26T11:41:29;8.50;;;6.20;;
16975;SDS011;8604;48.148;-1.786;2023-04-26T11:43:58;8.30;;;5.97;;
16975;SDS011;8604;48.148;-1.786;2023-04-26T11:46:27;9.97;;;6.37;;
16975;SDS011;8604;48.148;-1.786;2023-04-26T11:48:55;7.50;;;5.87;;
16975;SDS011;8604;48.148;-1.786;2023-04-26T11:51:24;9.30;;;6.40;;
16975;SDS011;8604;48.148;-1.786;2023-04-26T11:53:57;7.60;;;5.60;;
16975;SDS011;8604;48.148;-1.786;2023-04-26T11:56:30;8.23;;;5.60;;
16975;SDS011;8604;48.148;-1.786;2023-04-26T11:58:59;7.50;;;5.97;;
16975;SDS011;8604;48.148;-1.786;2023-04-26T12:01:28;6.40;;;5.30;;
16975;SDS011;8604;48.148;-1.786;2023-04-26T12:03:57;7.47;;;5.50;;
16975;SDS011;8604;48.148;-1.786;2023-04-26T12:06:30;6.70;;;5.10;;
16975;SDS011;8604;48.148;-1.786;2023-04-26T12:09:08;7.80;;;5.43;;
16975;SDS011;8604;48.148;-1.786;2023-04-26T12:11:38;8.07;;;5.27;;
16975;SDS011;8604;48.148;-1.786;2023-04-26T12:14:07;6.50;;;5.23;;
16975;SDS011;8604;48.148;-1.786;2023-04-26T12:16:37;7.87;;;5.47;;
16975;SDS011;8604;48.148;-1.786;2023-04-26T12:19:06;7.10;;;5.70;;
16975;SDS011;8604;48.148;-1.786;2023-04-26T12:21:40;6.53;;;5.00;;
16975;SDS011;8604;48.148;-1.786;2023-04-26T12:24:22;6.27;;;4.70;;
16975;SDS011;8604;48.148;-1.786;2023-04-26T12:26:52;6.80;;;4.63;;
16975;SDS011;8604;48.148;-1.786;2023-04-26T12:29:21;5.37;;;4.27;;
16975;SDS011;8604;48.148;-1.786;2023-04-26T12:31:50;6.53;;;4.13;;
16975;SDS011;8604;48.148;-1.786;2023-04-26T12:34:18;6.23;;;4.80;;
16975;SDS011;8604;48.148;-1.786;2023-04-26T12:36:47;6.67;;;4.90;;
16975;SDS011;8604;48.148;-1.786;2023-04-26T12:39:16;6.30;;;4.97;;
16975;SDS011;8604;48.148;-1.786;2023-04-26T12:41:44;5.70;;;4.60;;
16975;SDS011;8604;48.148;-1.786;2023-04-26T12:44:14;8.57;;;4.80;;
16975;SDS011;8604;48.148;-1.786;2023-04-26T12:46:46;6.30;;;4.40;;
16975;SDS011;8604;48.148;-1.786;2023-04-26T12:49:18;5.33;;;4.00;;
16975;SDS011;8604;48.148;-1.786;2023-04-26T12:51:46;6.10;;;4.37;;
16975;SDS011;8604;48.148;-1.786;2023-04-26T12:54:15;6.40;;;4.23;;
16975;SDS011;8604;48.148;-1.786;2023-04-26T12:56:43;6.67;;;5.00;;
16975;SDS011;8604;48.148;-1.786;2023-04-26T12:59:12;5.63;;;4.53;;
16975;SDS011;8604;48.148;-1.786;2023-04-26T13:01:42;6.20;;;4.33;;
16975;SDS011;8604;48.148;-1.786;2023-04-26T13:04:10;5.97;;;4.27;;
16975;SDS011;8604;48.148;-1.786;2023-04-26T13:06:39;5.47;;;4.30;;
16975;SDS011;8604;48.148;-1.786;2023-04-26T13:09:08;6.07;;;4.20;;
16975;SDS011;8604;48.148;-1.786;2023-04-26T13:11:38;6.97;;;4.47;;
16975;SDS011;8604;48.148;-1.786;2023-04-26T13:14:07;5.77;;;4.07;;
16975;SDS011;8604;48.148;-1.786;2023-04-26T13:16:36;7.10;;;5.20;;
16975;SDS011;8604;48.148;-1.786;2023-04-26T13:19:09;7.50;;;4.50;;
16975;SDS011;8604;48.148;-1.786;2023-04-26T13:21:38;5.30;;;4.30;;
16975;SDS011;8604;48.148;-1.786;2023-04-26T13:24:07;7.13;;;4.30;;
16975;SDS011;8604;48.148;-1.786;2023-04-26T13:26:36;6.07;;;4.90;;
16975;SDS011;8604;48.148;-1.786;2023-04-26T13:29:04;6.63;;;4.70;;
16975;SDS011;8604;48.148;-1.786;2023-04-26T13:31:33;7.77;;;4.27;;
16975;SDS011;8604;48.148;-1.786;2023-04-26T13:34:02;6.40;;;4.77;;
16975;SDS011;8604;48.148;-1.786;2023-04-26T13:36:33;7.13;;;4.50;;
16975;SDS011;8604;48.148;-1.786;2023-04-26T13:39:02;6.93;;;4.63;;
16975;SDS011;8604;48.148;-1.786;2023-04-26T13:41:33;5.47;;;3.90;;
16975;SDS011;8604;48.148;-1.786;2023-04-26T13:44:01;7.17;;;4.37;;
16975;SDS011;8604;48.148;-1.786;2023-04-26T13:46:31;6.13;;;4.23;;
16975;SDS011;8604;48.148;-1.786;2023-04-26T13:48:59;6.33;;;4.47;;
16975;SDS011;8604;48.148;-1.786;2023-04-26T13:51:28;6.83;;;4.67;;
16975;SDS011;8604;48.148;-1.786;2023-04-26T13:53:59;9.10;;;5.60;;
16975;SDS011;8604;48.148;-1.786;2023-04-26T13:56:27;7.50;;;5.33;;
16975;SDS011;8604;48.148;-1.786;2023-04-26T13:58:56;7.27;;;5.27;;
16975;SDS011;8604;48.148;-1.786;2023-04-26T14:01:26;7.87;;;5.17;;
16975;SDS011;8604;48.148;-1.786;2023-04-26T14:03:54;6.73;;;4.97;;
16975;SDS011;8604;48.148;-1.786;2023-04-26T14:06:23;7.33;;;5.50;;
16975;SDS011;8604;48.148;-1.786;2023-04-26T14:08:55;6.40;;;5.20;;
16975;SDS011;8604;48.148;-1.786;2023-04-26T14:11:25;6.80;;;4.90;;
16975;SDS011;8604;48.148;-1.786;2023-04-26T14:13:54;6.87;;;5.20;;
16975;SDS011;8604;48.148;-1.786;2023-04-26T14:16:23;5.97;;;4.50;;
16975;SDS011;8604;48.148;-1.786;2023-04-26T14:18:52;6.77;;;4.60;;
16975;SDS011;8604;48.148;-1.786;2023-04-26T14:21:21;6.53;;;4.60;;
16975;SDS011;8604;48.148;-1.786;2023-04-26T14:23:49;7.30;;;5.23;;
16975;SDS011;8604;48.148;-1.786;2023-04-26T14:26:18;6.97;;;4.80;;
16975;SDS011;8604;48.148;-1.786;2023-04-26T14:28:48;6.20;;;4.70;;
16975;SDS011;8604;48.148;-1.786;2023-04-26T14:31:17;5.53;;;4.23;;
16975;SDS011;8604;48.148;-1.786;2023-04-26T14:33:45;7.00;;;4.50;;
16975;SDS011;8604;48.148;-1.786;2023-04-26T14:36:14;6.90;;;4.43;;
16975;SDS011;8604;48.148;-1.786;2023-04-26T14:38:43;7.27;;;4.93;;
16975;SDS011;8604;48.148;-1.786;2023-04-26T14:41:13;6.87;;;4.63;;
16975;SDS011;8604;48.148;-1.786;2023-04-26T14:43:42;7.27;;;4.60;;
16975;SDS011;8604;48.148;-1.786;2023-04-26T14:46:12;7.57;;;4.90;;
16975;SDS011;8604;48.148;-1.786;2023-04-26T14:48:41;6.00;;;4.40;;
16975;SDS011;8604;48.148;-1.786;2023-04-26T14:51:10;7.13;;;4.73;;
16975;SDS011;8604;48.148;-1.786;2023-04-26T14:53:38;7.43;;;5.17;;
16975;SDS011;8604;48.148;-1.786;2023-04-26T14:56:07;6.00;;;4.47;;
16975;SDS011;8604;48.148;-1.786;2023-04-26T14:58:35;6.40;;;4.60;;
16975;SDS011;8604;48.148;-1.786;2023-04-26T15:01:04;7.53;;;4.70;;
16975;SDS011;8604;48.148;-1.786;2023-04-26T15:03:34;6.17;;;4.53;;
16975;SDS011;8604;48.148;-1.786;2023-04-26T15:06:03;6.90;;;4.43;;
16975;SDS011;8604;48.148;-1.786;2023-04-26T15:08:32;7.20;;;5.33;;
16975;SDS011;8604;48.148;-1.786;2023-04-26T15:11:00;8.07;;;6.03;;
16975;SDS011;8604;48.148;-1.786;2023-04-26T15:13:29;7.17;;;5.40;;
16975;SDS011;8604;48.148;-1.786;2023-04-26T15:16:00;7.43;;;5.37;;
16975;SDS011;8604;48.148;-1.786;2023-04-26T15:18:34;6.60;;;4.67;;
16975;SDS011;8604;48.148;-1.786;2023-04-26T15:21:03;7.33;;;5.33;;
16975;SDS011;8604;48.148;-1.786;2023-04-26T15:23:31;6.67;;;5.17;;
16975;SDS011;8604;48.148;-1.786;2023-04-26T15:26:00;6.70;;;5.10;;
16975;SDS011;8604;48.148;-1.786;2023-04-26T15:28:29;8.53;;;6.47;;
16975;SDS011;8604;48.148;-1.786;2023-04-26T15:31:00;7.63;;;5.83;;
16975;SDS011;8604;48.148;-1.786;2023-04-26T15:33:29;7.10;;;5.60;;
16975;SDS011;8604;48.148;-1.786;2023-04-26T15:36:00;6.57;;;5.07;;
16975;SDS011;8604;48.148;-1.786;2023-04-26T15:38:28;8.40;;;5.90;;
16975;SDS011;8604;48.148;-1.786;2023-04-26T15:40:57;8.20;;;5.90;;
16975;SDS011;8604;48.148;-1.786;2023-04-26T15:43:25;6.37;;;5.07;;